TRA3W LCPH-EHAM
Flight info
| Callsign | TRA3W |
|---|---|
| Flight time | N/A |
| Altitude | 38000 |
| Route | GENOS DCT PEDER DCT LUTIG DCT RDS UL609 MES DCT DISOR DCT LONTA UL608 DOLEV DCT RADLY DCT SIMBA DCT GASKA DCT MAPOX DCT NORKU |
| Aircraft | B738/M-SDE2E3FGHIJ1RWXYZ/LB1 |
Departure
| Time | 2026-04-29 17:06 |
|---|---|
| Airport | Paphos International Airport (LCPH) |
Arrival
| Time | N/A |
|---|---|
| Airport | Amsterdam Airport Schiphol (EHAM) |
| Time | Latitude | Longitude | Altitude | Speed | Heading |
|---|---|---|---|---|---|
| 2026-04-29 16:15 | 34.71299 | 32.48640 | 45 ft | 0 kts | 155° |
| 2026-04-29 16:57 | 34.71319 | 32.48627 | 43 ft | 4 kts | 143° |
| 2026-04-29 16:57 | 34.71339 | 32.48605 | 40 ft | 4 kts | 126° |
| 2026-04-29 16:57 | 34.71351 | 32.48577 | 45 ft | 4 kts | 106° |
| 2026-04-29 16:58 | 34.71355 | 32.48545 | 42 ft | 4 kts | 82° |
| 2026-04-29 16:58 | 34.71350 | 32.48524 | 41 ft | 0 kts | 65° |
| 2026-04-29 17:00 | 34.71351 | 32.48526 | 41 ft | 1 kts | 65° |
| 2026-04-29 17:00 | 34.71357 | 32.48542 | 40 ft | 4 kts | 65° |
| 2026-04-29 17:00 | 34.71373 | 32.48585 | 44 ft | 7 kts | 65° |
| 2026-04-29 17:01 | 34.71399 | 32.48652 | 45 ft | 10 kts | 65° |
| 2026-04-29 17:01 | 34.71431 | 32.48737 | 43 ft | 12 kts | 65° |
| 2026-04-29 17:01 | 34.71469 | 32.48837 | 45 ft | 14 kts | 65° |
| 2026-04-29 17:01 | 34.71507 | 32.48936 | 43 ft | 12 kts | 62° |
| 2026-04-29 17:02 | 34.71578 | 32.48992 | 46 ft | 13 kts | 21° |
| 2026-04-29 17:02 | 34.71638 | 32.49060 | 46 ft | 13 kts | 88° |
| 2026-04-29 17:02 | 34.71607 | 32.49176 | 46 ft | 17 kts | 110° |
| 2026-04-29 17:02 | 34.71556 | 32.49339 | 42 ft | 24 kts | 110° |
| 2026-04-29 17:03 | 34.71494 | 32.49544 | 43 ft | 28 kts | 110° |
| 2026-04-29 17:03 | 34.71439 | 32.49727 | 41 ft | 15 kts | 114° |
| 2026-04-29 17:03 | 34.71362 | 32.49816 | 42 ft | 14 kts | 99° |
| 2026-04-29 17:03 | 34.71408 | 32.49856 | 42 ft | 6 kts | 321° |
| 2026-04-29 17:04 | 34.71417 | 32.49799 | 41 ft | 8 kts | 289° |
| 2026-04-29 17:04 | 34.71420 | 32.49788 | 43 ft | 0 kts | 289° |
| 2026-04-29 17:05 | 34.71421 | 32.49786 | 43 ft | 2 kts | 289° |
| 2026-04-29 17:05 | 34.71492 | 32.49551 | 43 ft | 64 kts | 290° |
| 2026-04-29 17:05 | 34.71723 | 32.48792 | 47 ft | 127 kts | 290° |
| 2026-04-29 17:05 | 34.72098 | 32.47582 | 128 ft | 169 kts | 291° |
| 2026-04-29 17:06 | 34.72486 | 32.46257 | 888 ft | 170 kts | 283° |
| 2026-04-29 17:06 | 34.72341 | 32.44829 | 1601 ft | 173 kts | 250° |
| 2026-04-29 17:06 | 34.71902 | 32.43447 | 2204 ft | 183 kts | 254° |
| 2026-04-29 17:06 | 34.71506 | 32.41848 | 2455 ft | 211 kts | 256° |
| 2026-04-29 17:07 | 34.71086 | 32.40041 | 2658 ft | 233 kts | 256° |
| 2026-04-29 17:07 | 34.70640 | 32.38070 | 2948 ft | 255 kts | 256° |
| 2026-04-29 17:07 | 34.70163 | 32.35920 | 3450 ft | 269 kts | 256° |
| 2026-04-29 17:07 | 34.69675 | 32.33700 | 4203 ft | 273 kts | 256° |
| 2026-04-29 17:08 | 34.69185 | 32.31453 | 4967 ft | 278 kts | 257° |
| 2026-04-29 17:08 | 34.68690 | 32.29167 | 5721 ft | 281 kts | 257° |
| 2026-04-29 17:08 | 34.68195 | 32.26872 | 6531 ft | 282 kts | 258° |
| 2026-04-29 17:08 | 34.67698 | 32.24562 | 7261 ft | 284 kts | 258° |
| 2026-04-29 17:09 | 34.67196 | 32.22228 | 8000 ft | 287 kts | 257° |
| 2026-04-29 17:09 | 34.66690 | 32.19879 | 8736 ft | 289 kts | 257° |
| 2026-04-29 17:09 | 34.66183 | 32.17503 | 9468 ft | 291 kts | 259° |